createdAt,value
2018-12-29T00:01:41.859Z,12.60
2018-12-29T00:04:08.064Z,12.60
2018-12-29T00:06:35.014Z,12.60
2018-12-29T00:09:01.235Z,12.60
2018-12-29T00:11:27.435Z,12.60
2018-12-29T00:13:53.616Z,12.60
2018-12-29T00:16:19.813Z,12.60
2018-12-29T00:18:45.998Z,12.60
2018-12-29T00:21:12.196Z,12.60
2018-12-29T00:23:38.367Z,12.60
2018-12-29T00:26:04.572Z,12.60
2018-12-29T00:28:31.554Z,12.70
2018-12-29T00:30:58.382Z,12.60
2018-12-29T00:33:24.573Z,12.60
2018-12-29T00:35:50.774Z,12.60
2018-12-29T00:38:16.970Z,12.70
2018-12-29T00:40:43.172Z,12.70
2018-12-29T00:43:10.152Z,12.60
2018-12-29T00:45:36.364Z,12.60
2018-12-29T00:48:02.548Z,12.60
2018-12-29T00:50:28.770Z,12.50
2018-12-29T00:52:57.095Z,12.50
2018-12-29T00:55:23.304Z,12.50
2018-12-29T00:57:49.520Z,12.50
2018-12-29T01:00:15.691Z,12.50
2018-12-29T01:02:41.894Z,12.50
2018-12-29T01:05:08.849Z,12.50
2018-12-29T01:07:35.097Z,12.50
2018-12-29T01:10:01.307Z,12.50
2018-12-29T01:12:27.543Z,12.50
2018-12-29T01:14:53.744Z,12.60
2018-12-29T01:17:20.956Z,12.60
2018-12-29T01:19:47.148Z,12.60
2018-12-29T01:22:13.349Z,12.60
2018-12-29T01:24:40.294Z,12.40
2018-12-29T01:27:06.483Z,12.50
2018-12-29T01:29:32.681Z,12.40
2018-12-29T01:31:58.900Z,12.40
2018-12-29T01:34:25.087Z,12.40
2018-12-29T01:36:51.259Z,12.40
2018-12-29T01:39:17.467Z,12.40
2018-12-29T01:41:43.640Z,12.50
2018-12-29T01:44:09.849Z,12.50
2018-12-29T01:46:36.048Z,12.50
2018-12-29T01:49:03.023Z,12.50
2018-12-29T01:51:29.214Z,12.50
2018-12-29T01:53:55.416Z,12.50
2018-12-29T01:56:21.604Z,12.50
2018-12-29T01:58:47.885Z,12.50
2018-12-29T02:01:14.098Z,12.50
2018-12-29T02:03:40.291Z,12.60
2018-12-29T02:06:07.233Z,12.50
2018-12-29T02:08:33.444Z,12.60
2018-12-29T02:10:59.618Z,12.50
2018-12-29T02:13:25.856Z,12.50
2018-12-29T02:15:52.043Z,12.50
2018-12-29T02:18:18.239Z,12.50
2018-12-29T02:20:45.199Z,12.50
2018-12-29T02:23:11.414Z,12.50
2018-12-29T02:25:37.608Z,12.50
2018-12-29T02:28:05.301Z,12.50
2018-12-29T02:30:32.259Z,12.50
2018-12-29T02:32:58.461Z,12.50
2018-12-29T02:35:24.656Z,12.50
2018-12-29T02:37:50.862Z,12.60
2018-12-29T02:40:18.009Z,12.60
2018-12-29T02:42:44.209Z,12.60
2018-12-29T02:45:10.455Z,12.50
2018-12-29T02:47:36.624Z,12.60
2018-12-29T02:50:02.998Z,12.50
2018-12-29T02:52:29.202Z,12.50
2018-12-29T02:54:55.397Z,12.40
2018-12-29T02:57:21.608Z,12.40
2018-12-29T02:59:47.841Z,12.40
2018-12-29T03:02:14.053Z,12.50
2018-12-29T03:04:40.268Z,12.50
2018-12-29T03:07:07.217Z,12.40
2018-12-29T03:09:33.417Z,12.50
2018-12-29T03:11:59.632Z,12.40
2018-12-29T03:14:25.828Z,12.40
2018-12-29T03:16:52.028Z,12.30
2018-12-29T03:19:18.204Z,12.30
2018-12-29T03:21:45.159Z,12.30
2018-12-29T03:24:11.343Z,12.30
2018-12-29T03:26:37.542Z,12.30
2018-12-29T03:29:04.484Z,12.30
2018-12-29T03:31:30.691Z,12.30
2018-12-29T03:33:56.868Z,12.30
2018-12-29T03:36:23.103Z,12.30
2018-12-29T03:38:49.311Z,12.40
2018-12-29T03:41:15.514Z,12.40
2018-12-29T03:43:42.473Z,12.40
2018-12-29T03:46:08.717Z,12.40
2018-12-29T03:48:34.925Z,12.40
2018-12-29T03:51:01.154Z,12.40
2018-12-29T03:53:27.327Z,12.50
2018-12-29T03:55:53.577Z,12.50
2018-12-29T03:58:20.546Z,12.50
2018-12-29T04:00:47.492Z,12.60
2018-12-29T04:03:13.704Z,12.50
2018-12-29T04:05:39.871Z,12.50
2018-12-29T04:08:06.199Z,12.50
2018-12-29T04:10:32.388Z,12.40
2018-12-29T04:12:58.612Z,12.40
2018-12-29T04:15:24.799Z,12.40
2018-12-29T04:17:51.310Z,12.30
2018-12-29T04:20:17.492Z,12.30
2018-12-29T04:22:45.404Z,12.30
2018-12-29T04:25:11.601Z,12.30
2018-12-29T04:27:37.811Z,12.40
2018-12-29T04:30:04.003Z,12.40
2018-12-29T04:32:30.203Z,12.30
2018-12-29T04:34:57.160Z,12.40
2018-12-29T04:37:23.352Z,12.40
2018-12-29T04:39:49.539Z,12.40
2018-12-29T04:42:15.720Z,12.40
2018-12-29T04:44:43.413Z,12.40
2018-12-29T04:47:09.604Z,12.40
2018-12-29T04:49:36.609Z,12.40
2018-12-29T04:52:02.809Z,12.40
2018-12-29T04:54:29.047Z,12.40
2018-12-29T04:56:55.240Z,12.50
2018-12-29T04:59:21.440Z,12.50
2018-12-29T05:01:47.988Z,12.50
2018-12-29T05:04:14.196Z,12.50
2018-12-29T05:06:40.386Z,12.50
2018-12-29T05:09:06.566Z,12.50
2018-12-29T05:11:32.739Z,12.50
2018-12-29T05:13:58.920Z,12.50
2018-12-29T05:16:25.291Z,12.40
2018-12-29T05:18:51.474Z,12.40
2018-12-29T05:21:17.659Z,12.40
2018-12-29T05:23:43.864Z,12.40
2018-12-29T05:26:10.823Z,12.40
2018-12-29T05:28:37.008Z,12.40
2018-12-29T05:31:03.213Z,12.40
2018-12-29T05:33:29.400Z,12.40
2018-12-29T05:35:55.599Z,12.40
2018-12-29T05:38:21.774Z,12.40
2018-12-29T05:40:48.016Z,12.40
2018-12-29T05:43:14.232Z,12.40
2018-12-29T05:45:40.447Z,12.30
2018-12-29T05:48:06.643Z,12.30
2018-12-29T05:50:32.851Z,12.30
2018-12-29T05:52:59.120Z,12.40
2018-12-29T05:55:25.323Z,12.40
2018-12-29T05:57:51.575Z,12.40
2018-12-29T06:00:17.790Z,12.50
2018-12-29T06:02:43.951Z,12.40
2018-12-29T06:05:10.154Z,12.40
2018-12-29T06:07:37.118Z,12.50
2018-12-29T06:10:03.315Z,12.40
2018-12-29T06:12:29.505Z,12.50
2018-12-29T06:14:55.715Z,12.50
2018-12-29T06:17:21.909Z,12.50
2018-12-29T06:19:49.059Z,12.50
2018-12-29T06:22:15.250Z,12.50
2018-12-29T06:24:41.461Z,12.50
2018-12-29T06:27:07.667Z,12.50
2018-12-29T06:29:33.945Z,12.50
2018-12-29T06:32:00.143Z,12.40
2018-12-29T06:34:26.343Z,12.40
2018-12-29T06:36:52.554Z,12.40
2018-12-29T06:39:18.883Z,12.40
2018-12-29T06:41:45.075Z,12.50
2018-12-29T06:44:11.304Z,12.50
2018-12-29T06:46:37.525Z,12.50
2018-12-29T06:49:03.733Z,12.50
2018-12-29T06:51:29.995Z,12.50
2018-12-29T06:53:56.201Z,12.40
2018-12-29T06:56:22.400Z,12.50
2018-12-29T06:58:48.644Z,12.50
2018-12-29T07:01:15.755Z,12.50
2018-12-29T07:03:41.973Z,12.50
2018-12-29T07:06:08.190Z,12.50
2018-12-29T07:08:34.396Z,12.50
2018-12-29T07:11:02.087Z,12.50
2018-12-29T07:13:28.284Z,12.50
2018-12-29T07:15:54.481Z,12.50
2018-12-29T07:18:20.685Z,12.40
2018-12-29T07:20:46.967Z,12.40
2018-12-29T07:23:13.170Z,12.40
2018-12-29T07:25:39.368Z,12.40
2018-12-29T07:28:05.553Z,12.40
2018-12-29T07:30:31.864Z,12.50
2018-12-29T07:32:58.057Z,12.40
2018-12-29T07:35:24.623Z,12.50
2018-12-29T07:37:50.828Z,12.50
2018-12-29T07:40:17.029Z,12.50
2018-12-29T07:42:43.209Z,12.50
2018-12-29T07:45:09.446Z,12.50
2018-12-29T07:47:35.638Z,12.40
2018-12-29T07:50:01.956Z,12.40
2018-12-29T07:52:28.160Z,12.40
2018-12-29T07:54:54.387Z,12.40
2018-12-29T07:57:20.582Z,12.40
2018-12-29T07:59:46.867Z,12.40
2018-12-29T08:02:13.047Z,12.30
2018-12-29T08:04:39.237Z,12.30
2018-12-29T08:07:05.428Z,12.30
2018-12-29T08:09:32.378Z,12.30
2018-12-29T08:11:58.603Z,12.30
2018-12-29T08:14:24.812Z,12.40
2018-12-29T08:16:56.841Z,12.40
2018-12-29T08:19:17.255Z,12.40
2018-12-29T08:21:43.440Z,12.30
2018-12-29T08:24:09.625Z,12.30
2018-12-29T08:26:35.844Z,12.30
2018-12-29T08:29:02.070Z,12.40
2018-12-29T08:31:28.274Z,12.30
2018-12-29T08:33:54.468Z,12.30
2018-12-29T08:36:20.669Z,12.40
2018-12-29T08:38:47.689Z,12.40
2018-12-29T08:41:13.888Z,12.40
2018-12-29T08:43:40.071Z,12.40
2018-12-29T08:46:06.263Z,12.40
2018-12-29T08:48:32.474Z,12.40
2018-12-29T08:50:58.675Z,12.30
2018-12-29T08:53:24.882Z,12.30
2018-12-29T08:55:51.056Z,12.30
2018-12-29T08:58:17.271Z,12.30
2018-12-29T09:00:43.474Z,12.40
2018-12-29T09:03:10.433Z,12.40
2018-12-29T09:05:36.630Z,12.40
2018-12-29T09:08:03.598Z,12.40
2018-12-29T09:10:30.539Z,12.30
2018-12-29T09:12:56.764Z,12.30
2018-12-29T09:15:23.210Z,12.30
2018-12-29T09:17:49.377Z,12.30
2018-12-29T09:20:15.568Z,12.30
2018-12-29T09:22:41.779Z,12.30
2018-12-29T09:25:07.996Z,12.40
2018-12-29T09:27:34.171Z,12.40
2018-12-29T09:30:00.379Z,12.40
2018-12-29T09:32:26.807Z,12.40
2018-12-29T09:34:53.029Z,12.40
2018-12-29T09:37:19.217Z,12.40
2018-12-29T09:39:45.425Z,12.40
2018-12-29T09:42:11.600Z,12.40
2018-12-29T09:44:38.568Z,12.40
2018-12-29T09:47:04.742Z,12.40
2018-12-29T09:49:30.945Z,12.30
2018-12-29T09:51:57.322Z,12.30
2018-12-29T09:54:23.406Z,12.30
2018-12-29T09:56:49.596Z,12.30
2018-12-29T09:59:16.551Z,12.30
2018-12-29T10:01:42.745Z,12.30
2018-12-29T10:04:08.968Z,12.40
2018-12-29T10:06:36.698Z,12.30
2018-12-29T10:09:03.093Z,12.30
2018-12-29T10:11:29.300Z,12.40
2018-12-29T10:13:55.518Z,12.40
2018-12-29T10:16:21.738Z,12.50
2018-12-29T10:18:49.449Z,12.30
2018-12-29T10:21:15.696Z,12.30
2018-12-29T10:23:41.871Z,12.30
2018-12-29T10:26:08.079Z,12.30
2018-12-29T10:28:34.266Z,12.30
2018-12-29T10:31:00.459Z,12.30
2018-12-29T10:33:27.429Z,12.30
2018-12-29T10:35:53.655Z,12.30
2018-12-29T10:38:19.847Z,12.30
2018-12-29T10:40:47.547Z,12.30
2018-12-29T10:43:13.778Z,12.30
2018-12-29T10:45:39.993Z,12.30
2018-12-29T10:48:06.179Z,12.30
2018-12-29T10:50:32.387Z,12.30
2018-12-29T10:52:58.590Z,12.20
2018-12-29T10:55:24.831Z,12.30
2018-12-29T10:57:51.015Z,12.20
2018-12-29T11:00:17.993Z,12.10
2018-12-29T11:02:44.196Z,12.10
2018-12-29T11:05:10.432Z,12.10
2018-12-29T11:07:36.655Z,12.10
2018-12-29T11:10:02.853Z,12.20
2018-12-29T11:12:29.052Z,12.20
2018-12-29T11:14:55.284Z,12.20
2018-12-29T11:17:21.583Z,12.20
2018-12-29T11:19:47.768Z,12.20
2018-12-29T11:22:15.507Z,12.20
2018-12-29T11:24:41.693Z,12.30
2018-12-29T11:27:07.918Z,12.30
2018-12-29T11:29:34.105Z,12.30
2018-12-29T11:32:00.329Z,12.30
2018-12-29T11:34:26.547Z,12.30
2018-12-29T11:36:52.775Z,12.20
2018-12-29T11:39:18.960Z,12.30
2018-12-29T11:41:45.166Z,12.20
2018-12-29T11:44:12.107Z,12.10
2018-12-29T11:46:38.279Z,12.10
2018-12-29T11:49:04.496Z,12.20
2018-12-29T11:51:30.707Z,12.20
2018-12-29T11:53:56.942Z,12.20
2018-12-29T11:56:23.226Z,12.10
2018-12-29T11:58:49.432Z,12.20
2018-12-29T12:01:15.706Z,12.20
2018-12-29T12:03:41.953Z,12.20
2018-12-29T12:06:08.159Z,12.20
2018-12-29T12:08:34.376Z,12.20
2018-12-29T12:11:00.580Z,12.20
2018-12-29T12:13:26.778Z,12.30
2018-12-29T12:15:52.979Z,12.30
2018-12-29T12:18:19.958Z,12.20
2018-12-29T12:20:46.152Z,12.20
2018-12-29T12:23:12.358Z,12.20
2018-12-29T12:25:38.576Z,12.20
2018-12-29T12:28:04.809Z,12.30
2018-12-29T12:30:31.020Z,12.40
2018-12-29T12:32:57.220Z,12.40
2018-12-29T12:35:23.448Z,12.60
2018-12-29T12:37:49.658Z,12.60
2018-12-29T12:40:15.910Z,12.70
2018-12-29T12:42:42.116Z,12.80
2018-12-29T12:45:08.311Z,12.90
2018-12-29T12:47:35.284Z,13.10
2018-12-29T12:50:01.523Z,13.10
2018-12-29T12:52:27.784Z,13.20
2018-12-29T12:54:54.008Z,13.20
2018-12-29T12:57:20.962Z,13.30
2018-12-29T12:59:47.230Z,13.40
2018-12-29T13:02:13.428Z,13.50
2018-12-29T13:04:39.659Z,13.50
2018-12-29T13:07:05.861Z,13.60
2018-12-29T13:09:32.109Z,13.70
2018-12-29T13:11:58.318Z,13.70
2018-12-29T13:14:24.514Z,13.80
2018-12-29T13:16:50.740Z,13.80
2018-12-29T13:19:17.896Z,13.90
2018-12-29T13:21:44.332Z,14.00
2018-12-29T13:24:10.973Z,14.00
2018-12-29T13:26:37.171Z,14.00
2018-12-29T13:29:03.356Z,14.10
2018-12-29T13:31:29.583Z,14.10
2018-12-29T13:33:55.867Z,14.20
2018-12-29T13:36:22.084Z,14.20
2018-12-29T13:38:48.280Z,14.20
2018-12-29T13:41:15.273Z,14.30
2018-12-29T13:43:41.605Z,14.30
2018-12-29T13:46:07.844Z,14.40
2018-12-29T13:48:34.076Z,14.40
2018-12-29T13:51:00.289Z,14.40
2018-12-29T13:53:27.379Z,14.40
2018-12-29T13:55:53.584Z,14.50
2018-12-29T13:58:19.813Z,14.50
2018-12-29T14:00:46.004Z,14.50
2018-12-29T14:03:12.220Z,14.60
2018-12-29T14:05:38.416Z,14.60
2018-12-29T14:08:04.624Z,14.60
2018-12-29T14:10:30.802Z,14.60
2018-12-29T14:12:57.783Z,14.70
2018-12-29T14:15:23.968Z,14.70
2018-12-29T14:17:50.234Z,14.70
2018-12-29T14:20:16.424Z,14.70
2018-12-29T14:22:43.371Z,14.80
2018-12-29T14:25:09.578Z,14.80
2018-12-29T14:27:35.796Z,14.80
2018-12-29T14:30:01.980Z,14.80
2018-12-29T14:32:28.176Z,14.80
2018-12-29T14:34:54.387Z,14.90
2018-12-29T14:37:20.596Z,14.90
2018-12-29T14:39:46.820Z,14.90
2018-12-29T14:42:13.015Z,14.90
2018-12-29T14:44:39.206Z,15.00
2018-12-29T14:47:05.389Z,15.00
2018-12-29T14:49:31.650Z,15.00
2018-12-29T14:51:58.445Z,15.00
2018-12-29T14:54:24.704Z,15.10
2018-12-29T14:56:50.906Z,15.10
2018-12-29T14:59:17.131Z,15.10
2018-12-29T15:01:43.368Z,15.10
2018-12-29T15:04:09.573Z,15.20
2018-12-29T15:06:35.779Z,15.20
2018-12-29T15:09:02.744Z,15.20
2018-12-29T15:11:29.729Z,15.20
2018-12-29T15:13:55.925Z,15.20
2018-12-29T15:16:22.174Z,15.20
2018-12-29T15:18:48.372Z,15.30
2018-12-29T15:21:14.633Z,15.30
2018-12-29T15:23:41.654Z,15.30
2018-12-29T15:26:07.913Z,15.30
2018-12-29T15:28:34.334Z,15.30
2018-12-29T15:31:00.566Z,15.30
2018-12-29T15:33:26.800Z,15.30
2018-12-29T15:35:53.018Z,15.40
2018-12-29T15:38:19.223Z,15.40
2018-12-29T15:40:45.475Z,15.40
2018-12-29T15:43:12.427Z,15.50
2018-12-29T15:45:38.652Z,15.50
2018-12-29T15:48:04.853Z,15.50
2018-12-29T15:50:31.039Z,15.50
2018-12-29T15:52:58.062Z,15.40
2018-12-29T15:55:24.312Z,15.40
2018-12-29T15:57:50.541Z,15.50
2018-12-29T16:00:16.761Z,15.50
2018-12-29T16:02:42.961Z,15.60
2018-12-29T16:05:09.170Z,15.60
2018-12-29T16:07:35.413Z,15.70
2018-12-29T16:10:01.618Z,15.70
2018-12-29T16:12:27.852Z,15.70
2018-12-29T16:14:54.073Z,15.80
2018-12-29T16:17:20.297Z,15.80
2018-12-29T16:19:46.551Z,15.80
2018-12-29T16:22:12.752Z,15.80
2018-12-29T16:24:38.963Z,15.80
2018-12-29T16:27:05.209Z,15.80
2018-12-29T16:29:31.415Z,15.90
2018-12-29T16:31:57.655Z,15.90
2018-12-29T16:34:23.854Z,15.90
2018-12-29T16:36:51.347Z,15.90
2018-12-29T16:39:17.521Z,15.90
2018-12-29T16:41:43.844Z,15.90
2018-12-29T16:44:10.071Z,15.90
2018-12-29T16:46:36.294Z,15.90
2018-12-29T16:49:06.718Z,15.90
2018-12-29T16:51:28.824Z,15.90
2018-12-29T16:53:56.215Z,15.90
2018-12-29T16:56:22.388Z,15.90
2018-12-29T16:58:50.311Z,15.90
2018-12-29T17:01:16.519Z,16.00
2018-12-29T17:03:42.766Z,16.00
2018-12-29T17:06:09.031Z,16.00
2018-12-29T17:08:35.242Z,15.90
2018-12-29T17:11:01.435Z,15.80
2018-12-29T17:13:27.652Z,15.70
2018-12-29T17:15:53.883Z,15.70
2018-12-29T17:18:20.088Z,15.60
2018-12-29T17:20:46.307Z,15.60
2018-12-29T17:23:12.798Z,15.50
2018-12-29T17:25:39.050Z,15.30
2018-12-29T17:28:05.245Z,15.20
2018-12-29T17:30:31.502Z,15.20
2018-12-29T17:32:57.715Z,15.10
2018-12-29T17:35:23.981Z,15.10
2018-12-29T17:37:51.011Z,14.90
2018-12-29T17:40:17.240Z,14.90
2018-12-29T17:42:43.441Z,14.80
2018-12-29T17:45:09.719Z,14.80
2018-12-29T17:47:36.103Z,14.70
2018-12-29T17:50:02.323Z,14.80
2018-12-29T17:52:28.563Z,14.80
2018-12-29T17:54:54.794Z,14.70
2018-12-29T17:57:20.989Z,14.60
2018-12-29T17:59:47.196Z,14.60
2018-12-29T18:02:13.482Z,14.50
2018-12-29T18:04:39.688Z,14.60
2018-12-29T18:07:05.905Z,14.70
2018-12-29T18:09:32.362Z,14.50
2018-12-29T18:11:58.626Z,14.40
2018-12-29T18:14:24.877Z,14.40
2018-12-29T18:16:52.070Z,14.30
2018-12-29T18:19:18.344Z,14.30
2018-12-29T18:21:44.571Z,14.20
2018-12-29T18:24:10.780Z,14.20
2018-12-29T18:26:37.040Z,14.20
2018-12-29T18:29:03.417Z,14.20
2018-12-29T18:31:29.619Z,14.20
2018-12-29T18:33:55.844Z,14.20
2018-12-29T18:36:22.304Z,14.10
2018-12-29T18:38:48.529Z,14.00
2018-12-29T18:41:14.762Z,14.00
2018-12-29T18:43:41.203Z,14.00
2018-12-29T18:46:07.432Z,14.00
2018-12-29T18:48:33.641Z,13.90
2018-12-29T18:50:59.886Z,13.90
2018-12-29T18:53:26.105Z,14.00
2018-12-29T18:55:52.303Z,14.00
2018-12-29T18:58:18.523Z,14.10
2018-12-29T19:00:44.739Z,14.10
2018-12-29T19:03:10.988Z,14.10
2018-12-29T19:05:37.197Z,14.00
2018-12-29T19:08:03.394Z,14.10
2018-12-29T19:10:29.638Z,14.00
2018-12-29T19:12:55.875Z,13.90
2018-12-29T19:15:22.127Z,13.90
2018-12-29T19:17:48.364Z,13.90
2018-12-29T19:20:14.615Z,13.80
2018-12-29T19:22:40.817Z,13.80
2018-12-29T19:25:07.037Z,13.80
2018-12-29T19:27:33.285Z,13.70
2018-12-29T19:29:59.488Z,13.80
2018-12-29T19:32:25.683Z,13.70
2018-12-29T19:34:51.944Z,13.70
2018-12-29T19:37:18.161Z,13.80
2018-12-29T19:39:44.395Z,13.80
2018-12-29T19:42:10.621Z,13.90
2018-12-29T19:44:36.846Z,13.80
2018-12-29T19:47:03.087Z,13.70
2018-12-29T19:49:29.326Z,13.80
2018-12-29T19:51:55.543Z,13.70
2018-12-29T19:54:21.812Z,13.70
2018-12-29T19:56:48.055Z,13.70
2018-12-29T19:59:14.307Z,13.80
2018-12-29T20:01:40.555Z,13.80
2018-12-29T20:04:06.865Z,13.80
2018-12-29T20:06:33.057Z,13.80
2018-12-29T20:08:59.258Z,13.70
2018-12-29T20:11:26.244Z,13.70
2018-12-29T20:13:52.443Z,13.70
2018-12-29T20:16:18.629Z,13.70
2018-12-29T20:18:44.848Z,13.60
2018-12-29T20:21:11.093Z,13.70
2018-12-29T20:23:38.075Z,13.70
2018-12-29T20:26:04.291Z,13.70
2018-12-29T20:28:30.509Z,13.70
2018-12-29T20:30:57.500Z,13.70
2018-12-29T20:33:23.744Z,13.70
2018-12-29T20:35:49.962Z,13.60
2018-12-29T20:38:16.201Z,13.60
2018-12-29T20:40:42.428Z,13.60
2018-12-29T20:43:08.828Z,13.60
2018-12-29T20:45:35.067Z,13.50
2018-12-29T20:48:01.324Z,13.50
2018-12-29T20:50:28.084Z,13.40
2018-12-29T20:52:54.299Z,13.50
2018-12-29T20:55:20.511Z,13.50
2018-12-29T20:57:46.747Z,13.40
2018-12-29T21:00:12.950Z,13.40
2018-12-29T21:02:39.166Z,13.40
2018-12-29T21:05:05.426Z,13.30
2018-12-29T21:07:31.679Z,13.30
2018-12-29T21:09:57.887Z,13.30
2018-12-29T21:12:24.099Z,13.30
2018-12-29T21:14:50.338Z,13.40
2018-12-29T21:17:18.699Z,13.40
2018-12-29T21:19:44.956Z,13.40
2018-12-29T21:22:11.967Z,13.40
2018-12-29T21:24:38.260Z,13.30
2018-12-29T21:27:05.219Z,13.40
2018-12-29T21:29:31.448Z,13.30
2018-12-29T21:31:57.689Z,13.30
2018-12-29T21:34:23.946Z,13.30
2018-12-29T21:36:51.170Z,13.20
2018-12-29T21:39:17.431Z,13.30
2018-12-29T21:41:43.658Z,13.40
2018-12-29T21:44:09.887Z,13.40
2018-12-29T21:46:36.103Z,13.40
2018-12-29T21:49:02.316Z,13.40
2018-12-29T21:51:28.518Z,13.50
2018-12-29T21:53:54.753Z,13.50
2018-12-29T21:56:20.971Z,13.40
2018-12-29T21:58:47.198Z,13.40
2018-12-29T22:01:13.404Z,13.40
2018-12-29T22:03:39.627Z,13.40
2018-12-29T22:06:05.884Z,13.30
2018-12-29T22:08:32.108Z,13.30
2018-12-29T22:10:58.338Z,13.20
2018-12-29T22:13:24.591Z,13.20
2018-12-29T22:15:51.467Z,13.10
2018-12-29T22:18:17.674Z,13.20
2018-12-29T22:20:43.900Z,13.10
2018-12-29T22:23:10.099Z,13.10
2018-12-29T22:25:36.328Z,13.00
2018-12-29T22:28:02.554Z,13.00
2018-12-29T22:30:28.804Z,13.10
2018-12-29T22:32:54.993Z,13.10
2018-12-29T22:35:21.196Z,13.10
2018-12-29T22:37:48.918Z,13.10
2018-12-29T22:40:15.135Z,13.10
2018-12-29T22:42:41.375Z,13.20
2018-12-29T22:45:07.654Z,13.10
2018-12-29T22:47:33.895Z,13.20
2018-12-29T22:50:00.978Z,13.20
2018-12-29T22:52:27.284Z,13.20
2018-12-29T22:54:53.541Z,13.20
2018-12-29T22:57:19.761Z,13.20
2018-12-29T22:59:45.977Z,13.00
2018-12-29T23:02:12.963Z,13.10
2018-12-29T23:04:39.242Z,13.10
2018-12-29T23:07:05.476Z,13.10
2018-12-29T23:09:31.699Z,13.10
2018-12-29T23:11:57.919Z,13.10
2018-12-29T23:14:24.159Z,13.20
2018-12-29T23:16:50.419Z,13.10
2018-12-29T23:19:16.647Z,13.20
2018-12-29T23:21:42.856Z,13.10
2018-12-29T23:24:09.124Z,13.00
2018-12-29T23:26:35.341Z,13.00
2018-12-29T23:29:01.579Z,13.00
2018-12-29T23:31:27.818Z,13.00
2018-12-29T23:33:54.029Z,12.90
2018-12-29T23:36:20.272Z,12.90
2018-12-29T23:38:46.483Z,12.90
2018-12-29T23:41:12.730Z,13.00
2018-12-29T23:43:40.018Z,13.00
2018-12-29T23:46:06.181Z,13.00
2018-12-29T23:48:32.438Z,13.00
2018-12-29T23:51:05.651Z,13.00
2018-12-29T23:53:24.923Z,13.00
2018-12-29T23:55:51.172Z,13.10
2018-12-29T23:58:17.408Z,13.00
